Villa Grove, Illinois
Current Conditions -  °F | °C
As of 1:53 AM on Friday 28 Nov 2014 (Local Time) from KCMI Reporting Station
Overcast Overcast  
Wind Chill: 17°   Ceiling: 7500
Heat Index: 17°   Visibility: 10mi
Dew Point: 13°   Wind: 3mph
Humidity: 84%   Direction: 270°W
Pressure: 30.4"   Gusts: NA
Location:  39.86°N, 88.16°W
Report Text: KCMI 280753Z AUTO 27003KT 10SM BKN075 OVC095 M08/M11 A3040 RMK AO2 SLP307 T10831106 $
Loading
Personal Weather Stations






























Interactive Weather Map New forecast layout! Learn more

10-Day Weather Forecast

Advertisements
Track Severe Weather on mobile